sensor_id;sensor_type;location;lat;lon;timestamp;P1;durP1;ratioP1;P2;durP2;ratioP2
52104;SDS011;38103;42.776;23.112;2022-10-30T00:01:52;18.73;;;11.57;;
52104;SDS011;38103;42.776;23.112;2022-10-30T00:04:18;20.35;;;11.32;;
52104;SDS011;38103;42.776;23.112;2022-10-30T00:06:43;18.48;;;11.55;;
52104;SDS011;38103;42.776;23.112;2022-10-30T00:09:09;20.73;;;12.23;;
52104;SDS011;38103;42.776;23.112;2022-10-30T00:11:35;21.63;;;12.48;;
52104;SDS011;38103;42.776;23.112;2022-10-30T00:14:00;19.77;;;11.98;;
52104;SDS011;38103;42.776;23.112;2022-10-30T00:16:25;22.30;;;12.85;;
52104;SDS011;38103;42.776;23.112;2022-10-30T00:18:51;22.55;;;13.60;;
52104;SDS011;38103;42.776;23.112;2022-10-30T00:21:16;25.35;;;13.50;;
52104;SDS011;38103;42.776;23.112;2022-10-30T00:23:49;27.25;;;13.73;;
52104;SDS011;38103;42.776;23.112;2022-10-30T00:26:16;20.83;;;12.73;;
52104;SDS011;38103;42.776;23.112;2022-10-30T00:28:43;23.52;;;13.77;;
52104;SDS011;38103;42.776;23.112;2022-10-30T00:31:08;22.90;;;14.40;;
52104;SDS011;38103;42.776;23.112;2022-10-30T00:33:34;23.58;;;13.88;;
52104;SDS011;38103;42.776;23.112;2022-10-30T00:35:59;21.25;;;13.45;;
52104;SDS011;38103;42.776;23.112;2022-10-30T00:38:25;21.45;;;13.38;;
52104;SDS011;38103;42.776;23.112;2022-10-30T00:40:50;21.80;;;13.05;;
52104;SDS011;38103;42.776;23.112;2022-10-30T00:45:57;23.23;;;12.80;;
52104;SDS011;38103;42.776;23.112;2022-10-30T00:48:26;22.92;;;13.05;;
52104;SDS011;38103;42.776;23.112;2022-10-30T00:50:52;24.42;;;13.43;;
52104;SDS011;38103;42.776;23.112;2022-10-30T00:53:19;21.77;;;13.43;;
52104;SDS011;38103;42.776;23.112;2022-10-30T00:55:48;22.67;;;12.98;;
52104;SDS011;38103;42.776;23.112;2022-10-30T00:58:18;22.73;;;13.30;;
52104;SDS011;38103;42.776;23.112;2022-10-30T01:00:50;25.42;;;13.05;;
52104;SDS011;38103;42.776;23.112;2022-10-30T01:03:18;22.45;;;13.55;;
52104;SDS011;38103;42.776;23.112;2022-10-30T01:05:46;20.98;;;12.57;;
52104;SDS011;38103;42.776;23.112;2022-10-30T01:08:15;20.17;;;12.90;;
52104;SDS011;38103;42.776;23.112;2022-10-30T01:10:41;22.38;;;13.43;;
52104;SDS011;38103;42.776;23.112;2022-10-30T01:13:07;20.65;;;13.82;;
52104;SDS011;38103;42.776;23.112;2022-10-30T01:15:38;22.67;;;12.10;;
52104;SDS011;38103;42.776;23.112;2022-10-30T01:34:20;20.48;;;13.05;;
52104;SDS011;38103;42.776;23.112;2022-10-30T01:37:09;24.65;;;13.35;;
52104;SDS011;38103;42.776;23.112;2022-10-30T01:39:42;21.98;;;13.63;;
52104;SDS011;38103;42.776;23.112;2022-10-30T01:42:36;24.67;;;15.25;;
52104;SDS011;38103;42.776;23.112;2022-10-30T01:45:12;22.90;;;13.70;;
52104;SDS011;38103;42.776;23.112;2022-10-30T01:55:56;24.63;;;15.02;;
52104;SDS011;38103;42.776;23.112;2022-10-30T01:58:28;24.92;;;15.50;;
52104;SDS011;38103;42.776;23.112;2022-10-30T02:00:58;27.50;;;16.33;;
52104;SDS011;38103;42.776;23.112;2022-10-30T02:03:25;26.05;;;16.15;;
52104;SDS011;38103;42.776;23.112;2022-10-30T02:05:51;24.35;;;15.77;;
52104;SDS011;38103;42.776;23.112;2022-10-30T02:08:18;25.02;;;16.33;;
52104;SDS011;38103;42.776;23.112;2022-10-30T02:10:44;23.33;;;14.15;;
52104;SDS011;38103;42.776;23.112;2022-10-30T02:13:12;23.75;;;15.32;;
52104;SDS011;38103;42.776;23.112;2022-10-30T02:15:37;22.95;;;14.70;;
52104;SDS011;38103;42.776;23.112;2022-10-30T02:18:03;22.77;;;14.68;;
52104;SDS011;38103;42.776;23.112;2022-10-30T02:20:29;24.65;;;14.55;;
52104;SDS011;38103;42.776;23.112;2022-10-30T02:22:55;24.80;;;14.38;;
52104;SDS011;38103;42.776;23.112;2022-10-30T02:25:20;24.30;;;15.88;;
52104;SDS011;38103;42.776;23.112;2022-10-30T02:27:46;29.92;;;15.45;;
52104;SDS011;38103;42.776;23.112;2022-10-30T02:30:11;23.20;;;14.50;;
52104;SDS011;38103;42.776;23.112;2022-10-30T02:32:37;27.13;;;15.80;;
52104;SDS011;38103;42.776;23.112;2022-10-30T02:35:03;24.75;;;14.60;;
52104;SDS011;38103;42.776;23.112;2022-10-30T02:37:28;29.00;;;15.90;;
52104;SDS011;38103;42.776;23.112;2022-10-30T02:39:56;26.25;;;15.30;;
52104;SDS011;38103;42.776;23.112;2022-10-30T02:42:21;21.83;;;14.10;;
52104;SDS011;38103;42.776;23.112;2022-10-30T02:44:47;23.52;;;14.07;;
52104;SDS011;38103;42.776;23.112;2022-10-30T02:47:12;24.45;;;14.40;;
52104;SDS011;38103;42.776;23.112;2022-10-30T02:49:38;24.52;;;14.88;;
52104;SDS011;38103;42.776;23.112;2022-10-30T02:52:05;24.92;;;15.18;;
52104;SDS011;38103;42.776;23.112;2022-10-30T02:54:31;21.02;;;13.65;;
52104;SDS011;38103;42.776;23.112;2022-10-30T02:56:56;24.27;;;14.43;;
52104;SDS011;38103;42.776;23.112;2022-10-30T02:59:22;23.98;;;14.25;;
52104;SDS011;38103;42.776;23.112;2022-10-30T03:01:47;27.17;;;14.98;;
52104;SDS011;38103;42.776;23.112;2022-10-30T03:04:12;24.17;;;13.88;;
52104;SDS011;38103;42.776;23.112;2022-10-30T03:06:38;23.42;;;14.93;;
52104;SDS011;38103;42.776;23.112;2022-10-30T03:09:03;27.25;;;15.32;;
52104;SDS011;38103;42.776;23.112;2022-10-30T03:11:28;23.45;;;13.80;;
52104;SDS011;38103;42.776;23.112;2022-10-30T03:13:54;23.45;;;14.25;;
52104;SDS011;38103;42.776;23.112;2022-10-30T03:16:21;24.27;;;13.70;;
52104;SDS011;38103;42.776;23.112;2022-10-30T03:18:48;23.40;;;13.13;;
52104;SDS011;38103;42.776;23.112;2022-10-30T03:21:16;22.48;;;13.82;;
52104;SDS011;38103;42.776;23.112;2022-10-30T03:23:43;25.35;;;13.05;;
52104;SDS011;38103;42.776;23.112;2022-10-30T03:26:09;22.23;;;13.35;;
52104;SDS011;38103;42.776;23.112;2022-10-30T03:28:34;21.40;;;12.80;;
52104;SDS011;38103;42.776;23.112;2022-10-30T03:31:04;20.75;;;12.73;;
52104;SDS011;38103;42.776;23.112;2022-10-30T03:33:35;20.25;;;12.65;;
52104;SDS011;38103;42.776;23.112;2022-10-30T03:36:01;23.73;;;13.65;;
52104;SDS011;38103;42.776;23.112;2022-10-30T03:38:28;26.50;;;14.52;;
52104;SDS011;38103;42.776;23.112;2022-10-30T03:40:53;20.83;;;12.65;;
52104;SDS011;38103;42.776;23.112;2022-10-30T03:43:18;23.10;;;13.15;;
52104;SDS011;38103;42.776;23.112;2022-10-30T03:45:48;21.30;;;12.88;;
52104;SDS011;38103;42.776;23.112;2022-10-30T03:48:15;23.17;;;13.27;;
52104;SDS011;38103;42.776;23.112;2022-10-30T03:50:42;23.55;;;14.05;;
52104;SDS011;38103;42.776;23.112;2022-10-30T03:53:07;22.35;;;14.13;;
52104;SDS011;38103;42.776;23.112;2022-10-30T03:55:32;24.58;;;13.73;;
52104;SDS011;38103;42.776;23.112;2022-10-30T03:57:58;23.75;;;13.95;;
52104;SDS011;38103;42.776;23.112;2022-10-30T04:00:23;24.02;;;14.35;;
52104;SDS011;38103;42.776;23.112;2022-10-30T04:02:49;20.80;;;13.35;;
52104;SDS011;38103;42.776;23.112;2022-10-30T04:05:16;23.35;;;12.90;;
52104;SDS011;38103;42.776;23.112;2022-10-30T04:07:43;20.67;;;13.35;;
52104;SDS011;38103;42.776;23.112;2022-10-30T04:10:09;25.05;;;13.63;;
52104;SDS011;38103;42.776;23.112;2022-10-30T04:12:35;23.63;;;14.65;;
52104;SDS011;38103;42.776;23.112;2022-10-30T04:15:00;22.20;;;13.50;;
52104;SDS011;38103;42.776;23.112;2022-10-30T04:17:26;21.27;;;12.50;;
52104;SDS011;38103;42.776;23.112;2022-10-30T04:19:51;20.85;;;12.45;;
52104;SDS011;38103;42.776;23.112;2022-10-30T04:22:17;21.85;;;12.68;;
52104;SDS011;38103;42.776;23.112;2022-10-30T04:24:42;23.08;;;12.60;;
52104;SDS011;38103;42.776;23.112;2022-10-30T04:27:08;21.77;;;13.93;;
52104;SDS011;38103;42.776;23.112;2022-10-30T04:29:34;25.33;;;14.90;;
52104;SDS011;38103;42.776;23.112;2022-10-30T04:32:01;23.85;;;13.98;;
52104;SDS011;38103;42.776;23.112;2022-10-30T04:34:27;21.92;;;14.02;;
52104;SDS011;38103;42.776;23.112;2022-10-30T04:36:52;24.30;;;14.30;;
52104;SDS011;38103;42.776;23.112;2022-10-30T04:39:18;21.85;;;13.52;;
52104;SDS011;38103;42.776;23.112;2022-10-30T04:41:43;25.65;;;13.68;;
52104;SDS011;38103;42.776;23.112;2022-10-30T04:44:08;25.65;;;15.60;;
52104;SDS011;38103;42.776;23.112;2022-10-30T04:46:34;25.95;;;14.90;;
52104;SDS011;38103;42.776;23.112;2022-10-30T04:48:59;25.23;;;15.68;;
52104;SDS011;38103;42.776;23.112;2022-10-30T04:51:24;23.80;;;14.85;;
52104;SDS011;38103;42.776;23.112;2022-10-30T04:53:50;26.80;;;14.60;;
52104;SDS011;38103;42.776;23.112;2022-10-30T04:56:15;23.98;;;14.23;;
52104;SDS011;38103;42.776;23.112;2022-10-30T04:58:41;23.77;;;14.05;;
52104;SDS011;38103;42.776;23.112;2022-10-30T05:01:06;22.38;;;13.30;;
52104;SDS011;38103;42.776;23.112;2022-10-30T05:03:32;21.55;;;13.40;;
52104;SDS011;38103;42.776;23.112;2022-10-30T05:06:01;23.95;;;13.35;;
52104;SDS011;38103;42.776;23.112;2022-10-30T05:08:29;22.60;;;13.63;;
52104;SDS011;38103;42.776;23.112;2022-10-30T05:10:55;23.20;;;12.57;;
52104;SDS011;38103;42.776;23.112;2022-10-30T05:13:21;21.95;;;13.00;;
52104;SDS011;38103;42.776;23.112;2022-10-30T05:15:46;24.45;;;13.80;;
52104;SDS011;38103;42.776;23.112;2022-10-30T05:18:12;24.52;;;14.88;;
52104;SDS011;38103;42.776;23.112;2022-10-30T05:20:37;25.02;;;14.18;;
52104;SDS011;38103;42.776;23.112;2022-10-30T05:23:02;25.40;;;14.93;;
52104;SDS011;38103;42.776;23.112;2022-10-30T05:25:28;25.75;;;14.98;;
52104;SDS011;38103;42.776;23.112;2022-10-30T05:27:57;25.05;;;15.32;;
52104;SDS011;38103;42.776;23.112;2022-10-30T05:30:23;23.63;;;15.18;;
52104;SDS011;38103;42.776;23.112;2022-10-30T05:32:49;25.10;;;15.18;;
52104;SDS011;38103;42.776;23.112;2022-10-30T05:35:14;27.30;;;15.35;;
52104;SDS011;38103;42.776;23.112;2022-10-30T05:37:39;28.63;;;16.15;;
52104;SDS011;38103;42.776;23.112;2022-10-30T05:40:05;23.92;;;15.52;;
52104;SDS011;38103;42.776;23.112;2022-10-30T05:42:31;23.90;;;15.48;;
52104;SDS011;38103;42.776;23.112;2022-10-30T05:44:56;28.67;;;14.68;;
52104;SDS011;38103;42.776;23.112;2022-10-30T05:47:22;23.75;;;14.45;;
52104;SDS011;38103;42.776;23.112;2022-10-30T05:49:47;31.05;;;16.15;;
52104;SDS011;38103;42.776;23.112;2022-10-30T05:52:13;26.95;;;16.83;;
52104;SDS011;38103;42.776;23.112;2022-10-30T05:54:38;20.45;;;13.00;;
52104;SDS011;38103;42.776;23.112;2022-10-30T05:57:03;21.55;;;12.00;;
52104;SDS011;38103;42.776;23.112;2022-10-30T05:59:29;22.40;;;12.88;;
52104;SDS011;38103;42.776;23.112;2022-10-30T06:01:54;24.10;;;13.95;;
52104;SDS011;38103;42.776;23.112;2022-10-30T06:04:20;24.17;;;14.40;;
52104;SDS011;38103;42.776;23.112;2022-10-30T06:06:46;24.77;;;14.23;;
52104;SDS011;38103;42.776;23.112;2022-10-30T06:09:11;25.35;;;15.00;;
52104;SDS011;38103;42.776;23.112;2022-10-30T06:11:36;34.38;;;14.93;;
52104;SDS011;38103;42.776;23.112;2022-10-30T06:14:02;24.38;;;14.90;;
52104;SDS011;38103;42.776;23.112;2022-10-30T06:16:27;30.27;;;16.92;;
52104;SDS011;38103;42.776;23.112;2022-10-30T06:18:52;30.80;;;16.48;;
52104;SDS011;38103;42.776;23.112;2022-10-30T06:21:18;30.45;;;15.75;;
52104;SDS011;38103;42.776;23.112;2022-10-30T06:23:43;30.63;;;17.13;;
52104;SDS011;38103;42.776;23.112;2022-10-30T06:26:08;47.85;;;26.13;;
52104;SDS011;38103;42.776;23.112;2022-10-30T06:28:34;37.80;;;19.95;;
52104;SDS011;38103;42.776;23.112;2022-10-30T06:30:59;35.50;;;18.02;;
52104;SDS011;38103;42.776;23.112;2022-10-30T06:33:25;28.13;;;16.02;;
52104;SDS011;38103;42.776;23.112;2022-10-30T06:35:50;27.27;;;15.15;;
52104;SDS011;38103;42.776;23.112;2022-10-30T06:38:15;26.23;;;15.18;;
52104;SDS011;38103;42.776;23.112;2022-10-30T06:40:41;23.42;;;14.35;;
52104;SDS011;38103;42.776;23.112;2022-10-30T06:43:08;24.10;;;14.65;;
52104;SDS011;38103;42.776;23.112;2022-10-30T06:45:33;23.77;;;14.25;;
52104;SDS011;38103;42.776;23.112;2022-10-30T06:47:59;23.23;;;14.02;;
52104;SDS011;38103;42.776;23.112;2022-10-30T06:50:25;26.20;;;14.90;;
52104;SDS011;38103;42.776;23.112;2022-10-30T06:52:51;23.15;;;13.95;;
52104;SDS011;38103;42.776;23.112;2022-10-30T06:55:18;22.15;;;13.77;;
52104;SDS011;38103;42.776;23.112;2022-10-30T06:57:44;25.33;;;13.82;;
52104;SDS011;38103;42.776;23.112;2022-10-30T07:00:09;24.25;;;14.60;;
52104;SDS011;38103;42.776;23.112;2022-10-30T07:02:36;23.77;;;12.93;;
52104;SDS011;38103;42.776;23.112;2022-10-30T07:05:01;23.92;;;12.18;;
52104;SDS011;38103;42.776;23.112;2022-10-30T07:07:27;19.85;;;11.68;;
52104;SDS011;38103;42.776;23.112;2022-10-30T07:09:53;20.63;;;12.48;;
52104;SDS011;38103;42.776;23.112;2022-10-30T07:12:18;23.13;;;11.45;;
52104;SDS011;38103;42.776;23.112;2022-10-30T07:14:43;20.10;;;10.52;;
52104;SDS011;38103;42.776;23.112;2022-10-30T07:17:09;18.50;;;11.10;;
52104;SDS011;38103;42.776;23.112;2022-10-30T07:19:34;20.40;;;10.75;;
52104;SDS011;38103;42.776;23.112;2022-10-30T07:22:00;16.70;;;9.93;;
52104;SDS011;38103;42.776;23.112;2022-10-30T07:24:26;17.52;;;10.05;;
52104;SDS011;38103;42.776;23.112;2022-10-30T07:26:51;24.17;;;10.43;;
52104;SDS011;38103;42.776;23.112;2022-10-30T07:29:16;19.15;;;9.80;;
52104;SDS011;38103;42.776;23.112;2022-10-30T07:31:42;18.42;;;10.15;;
52104;SDS011;38103;42.776;23.112;2022-10-30T07:34:10;20.95;;;9.90;;
52104;SDS011;38103;42.776;23.112;2022-10-30T07:36:36;19.02;;;9.75;;
52104;SDS011;38103;42.776;23.112;2022-10-30T07:39:01;17.92;;;9.45;;
52104;SDS011;38103;42.776;23.112;2022-10-30T07:41:26;16.27;;;9.85;;
52104;SDS011;38103;42.776;23.112;2022-10-30T07:43:52;20.05;;;10.40;;
52104;SDS011;38103;42.776;23.112;2022-10-30T07:46:17;18.05;;;9.73;;
52104;SDS011;38103;42.776;23.112;2022-10-30T07:48:42;17.60;;;9.20;;
52104;SDS011;38103;42.776;23.112;2022-10-30T07:51:08;15.75;;;8.65;;
52104;SDS011;38103;42.776;23.112;2022-10-30T07:53:33;18.63;;;9.13;;
52104;SDS011;38103;42.776;23.112;2022-10-30T07:55:58;18.85;;;9.80;;
52104;SDS011;38103;42.776;23.112;2022-10-30T07:58:24;19.80;;;9.55;;
52104;SDS011;38103;42.776;23.112;2022-10-30T08:00:49;15.65;;;9.05;;
52104;SDS011;38103;42.776;23.112;2022-10-30T08:03:15;18.02;;;8.15;;
52104;SDS011;38103;42.776;23.112;2022-10-30T08:05:40;19.63;;;8.88;;
52104;SDS011;38103;42.776;23.112;2022-10-30T08:08:06;20.08;;;9.48;;
52104;SDS011;38103;42.776;23.112;2022-10-30T08:10:32;17.55;;;9.10;;
52104;SDS011;38103;42.776;23.112;2022-10-30T08:12:58;19.30;;;9.82;;
52104;SDS011;38103;42.776;23.112;2022-10-30T08:15:23;18.52;;;9.88;;
52104;SDS011;38103;42.776;23.112;2022-10-30T08:17:49;17.60;;;10.50;;
52104;SDS011;38103;42.776;23.112;2022-10-30T08:20:16;18.48;;;9.68;;
52104;SDS011;38103;42.776;23.112;2022-10-30T08:22:50;19.15;;;10.32;;
52104;SDS011;38103;42.776;23.112;2022-10-30T08:25:18;15.75;;;8.88;;
52104;SDS011;38103;42.776;23.112;2022-10-30T08:28:18;14.85;;;7.10;;
52104;SDS011;38103;42.776;23.112;2022-10-30T08:30:36;17.75;;;8.70;;
52104;SDS011;38103;42.776;23.112;2022-10-30T08:33:03;17.90;;;6.90;;
52104;SDS011;38103;42.776;23.112;2022-10-30T08:35:30;14.57;;;6.60;;
52104;SDS011;38103;42.776;23.112;2022-10-30T08:37:57;17.00;;;8.45;;
52104;SDS011;38103;42.776;23.112;2022-10-30T08:40:24;17.83;;;8.45;;
52104;SDS011;38103;42.776;23.112;2022-10-30T08:42:54;15.73;;;7.15;;
52104;SDS011;38103;42.776;23.112;2022-10-30T08:45:21;17.05;;;6.88;;
52104;SDS011;38103;42.776;23.112;2022-10-30T08:47:47;18.40;;;9.90;;
52104;SDS011;38103;42.776;23.112;2022-10-30T08:50:13;18.85;;;9.95;;
52104;SDS011;38103;42.776;23.112;2022-10-30T08:52:38;16.42;;;8.50;;
52104;SDS011;38103;42.776;23.112;2022-10-30T08:55:04;15.23;;;8.40;;
52104;SDS011;38103;42.776;23.112;2022-10-30T08:57:34;16.50;;;7.25;;
52104;SDS011;38103;42.776;23.112;2022-10-30T09:00:03;17.20;;;7.40;;
52104;SDS011;38103;42.776;23.112;2022-10-30T09:02:29;16.25;;;7.88;;
52104;SDS011;38103;42.776;23.112;2022-10-30T09:04:55;18.13;;;8.27;;
52104;SDS011;38103;42.776;23.112;2022-10-30T09:07:20;14.23;;;7.60;;
52104;SDS011;38103;42.776;23.112;2022-10-30T09:09:45;14.85;;;7.10;;
52104;SDS011;38103;42.776;23.112;2022-10-30T09:12:11;14.40;;;7.00;;
52104;SDS011;38103;42.776;23.112;2022-10-30T09:14:36;15.68;;;7.20;;
52104;SDS011;38103;42.776;23.112;2022-10-30T09:17:02;19.02;;;7.35;;
52104;SDS011;38103;42.776;23.112;2022-10-30T09:19:27;16.27;;;7.47;;
52104;SDS011;38103;42.776;23.112;2022-10-30T09:21:52;14.02;;;7.22;;
52104;SDS011;38103;42.776;23.112;2022-10-30T09:24:18;20.38;;;7.63;;
52104;SDS011;38103;42.776;23.112;2022-10-30T09:26:44;14.95;;;7.38;;
52104;SDS011;38103;42.776;23.112;2022-10-30T09:29:09;16.85;;;7.22;;
52104;SDS011;38103;42.776;23.112;2022-10-30T09:31:35;14.65;;;7.07;;
52104;SDS011;38103;42.776;23.112;2022-10-30T09:34:00;15.02;;;7.13;;
52104;SDS011;38103;42.776;23.112;2022-10-30T09:36:26;16.05;;;7.13;;
52104;SDS011;38103;42.776;23.112;2022-10-30T09:38:51;14.07;;;6.30;;
52104;SDS011;38103;42.776;23.112;2022-10-30T09:58:00;11.90;;;5.70;;
52104;SDS011;38103;42.776;23.112;2022-10-30T10:00:37;15.98;;;6.00;;
52104;SDS011;38103;42.776;23.112;2022-10-30T10:06:16;14.93;;;5.38;;
52104;SDS011;38103;42.776;23.112;2022-10-30T10:08:47;12.13;;;5.45;;
52104;SDS011;38103;42.776;23.112;2022-10-30T10:11:25;14.90;;;5.60;;
52104;SDS011;38103;42.776;23.112;2022-10-30T10:16:24;11.32;;;5.10;;
52104;SDS011;38103;42.776;23.112;2022-10-30T10:21:35;12.63;;;5.07;;
52104;SDS011;38103;42.776;23.112;2022-10-30T10:24:12;13.93;;;5.07;;
52104;SDS011;38103;42.776;23.112;2022-10-30T10:34:43;13.13;;;5.88;;
52104;SDS011;38103;42.776;23.112;2022-10-30T10:43:06;10.52;;;4.43;;
52104;SDS011;38103;42.776;23.112;2022-10-30T10:45:52;13.68;;;4.45;;
52104;SDS011;38103;42.776;23.112;2022-10-30T10:51:17;11.05;;;3.92;;
52104;SDS011;38103;42.776;23.112;2022-10-30T10:56:33;8.82;;;2.70;;
52104;SDS011;38103;42.776;23.112;2022-10-30T10:59:03;10.00;;;2.80;;
52104;SDS011;38103;42.776;23.112;2022-10-30T11:01:37;11.85;;;2.90;;
52104;SDS011;38103;42.776;23.112;2022-10-30T11:04:09;8.52;;;2.85;;
52104;SDS011;38103;42.776;23.112;2022-10-30T11:06:40;12.50;;;3.25;;
52104;SDS011;38103;42.776;23.112;2022-10-30T11:09:20;10.57;;;3.10;;
52104;SDS011;38103;42.776;23.112;2022-10-30T11:11:51;11.52;;;3.00;;
52104;SDS011;38103;42.776;23.112;2022-10-30T11:14:23;10.23;;;2.80;;
52104;SDS011;38103;42.776;23.112;2022-10-30T11:17:12;8.02;;;2.63;;
52104;SDS011;38103;42.776;23.112;2022-10-30T11:22:20;10.70;;;2.80;;
52104;SDS011;38103;42.776;23.112;2022-10-30T11:24:50;10.20;;;2.42;;
52104;SDS011;38103;42.776;23.112;2022-10-30T11:29:53;10.40;;;2.95;;
52104;SDS011;38103;42.776;23.112;2022-10-30T11:32:25;8.98;;;2.70;;
52104;SDS011;38103;42.776;23.112;2022-10-30T11:37:36;8.50;;;2.55;;
52104;SDS011;38103;42.776;23.112;2022-10-30T11:42:41;9.45;;;2.70;;
52104;SDS011;38103;42.776;23.112;2022-10-30T11:45:14;9.48;;;2.80;;
52104;SDS011;38103;42.776;23.112;2022-10-30T11:47:39;13.93;;;3.28;;
52104;SDS011;38103;42.776;23.112;2022-10-30T11:50:28;9.57;;;2.70;;
52104;SDS011;38103;42.776;23.112;2022-10-30T11:52:56;9.85;;;2.88;;
52104;SDS011;38103;42.776;23.112;2022-10-30T11:55:36;9.68;;;2.72;;
52104;SDS011;38103;42.776;23.112;2022-10-30T11:58:04;10.32;;;2.72;;
52104;SDS011;38103;42.776;23.112;2022-10-30T12:00:34;9.70;;;2.70;;
52104;SDS011;38103;42.776;23.112;2022-10-30T12:03:01;8.20;;;2.70;;
52104;SDS011;38103;42.776;23.112;2022-10-30T12:05:29;7.97;;;2.53;;
52104;SDS011;38103;42.776;23.112;2022-10-30T12:10:40;8.27;;;2.50;;
52104;SDS011;38103;42.776;23.112;2022-10-30T12:13:13;10.38;;;2.67;;
52104;SDS011;38103;42.776;23.112;2022-10-30T12:15:40;10.18;;;2.60;;
52104;SDS011;38103;42.776;23.112;2022-10-30T12:18:07;10.32;;;3.10;;
52104;SDS011;38103;42.776;23.112;2022-10-30T12:20:44;10.10;;;3.00;;
52104;SDS011;38103;42.776;23.112;2022-10-30T12:23:15;11.15;;;2.90;;
52104;SDS011;38103;42.776;23.112;2022-10-30T12:25:46;10.02;;;2.83;;
52104;SDS011;38103;42.776;23.112;2022-10-30T12:28:15;8.80;;;2.72;;
52104;SDS011;38103;42.776;23.112;2022-10-30T12:30:49;8.60;;;2.63;;
52104;SDS011;38103;42.776;23.112;2022-10-30T12:35:56;8.85;;;2.60;;
52104;SDS011;38103;42.776;23.112;2022-10-30T12:38:28;10.57;;;2.50;;
52104;SDS011;38103;42.776;23.112;2022-10-30T12:43:40;8.05;;;2.40;;
52104;SDS011;38103;42.776;23.112;2022-10-30T12:49:19;10.27;;;3.00;;
52104;SDS011;38103;42.776;23.112;2022-10-30T13:07:43;11.85;;;2.85;;
52104;SDS011;38103;42.776;23.112;2022-10-30T13:12:56;14.10;;;2.92;;
52104;SDS011;38103;42.776;23.112;2022-10-30T13:15:28;11.60;;;2.60;;
52104;SDS011;38103;42.776;23.112;2022-10-30T13:17:58;12.45;;;2.63;;
52104;SDS011;38103;42.776;23.112;2022-10-30T13:20:30;11.57;;;3.38;;
52104;SDS011;38103;42.776;23.112;2022-10-30T13:23:05;12.18;;;2.92;;
52104;SDS011;38103;42.776;23.112;2022-10-30T13:25:47;10.65;;;2.70;;
52104;SDS011;38103;42.776;23.112;2022-10-30T13:28:33;12.40;;;2.80;;
52104;SDS011;38103;42.776;23.112;2022-10-30T13:31:57;8.80;;;2.83;;
52104;SDS011;38103;42.776;23.112;2022-10-30T13:37:23;9.18;;;2.70;;
52104;SDS011;38103;42.776;23.112;2022-10-30T13:40:03;9.93;;;2.80;;
52104;SDS011;38103;42.776;23.112;2022-10-30T13:47:54;9.20;;;2.78;;
52104;SDS011;38103;42.776;23.112;2022-10-30T13:50:53;11.20;;;3.15;;
52104;SDS011;38103;42.776;23.112;2022-10-30T13:53:32;11.38;;;3.35;;
52104;SDS011;38103;42.776;23.112;2022-10-30T13:56:00;12.38;;;3.40;;
52104;SDS011;38103;42.776;23.112;2022-10-30T14:08:20;9.80;;;3.13;;
52104;SDS011;38103;42.776;23.112;2022-10-30T14:11:00;9.75;;;3.25;;
52104;SDS011;38103;42.776;23.112;2022-10-30T14:16:39;13.05;;;3.30;;
52104;SDS011;38103;42.776;23.112;2022-10-30T14:19:08;10.25;;;3.30;;
52104;SDS011;38103;42.776;23.112;2022-10-30T14:24:11;10.25;;;3.20;;
52104;SDS011;38103;42.776;23.112;2022-10-30T14:26:42;12.90;;;3.50;;
52104;SDS011;38103;42.776;23.112;2022-10-30T14:31:57;9.88;;;3.50;;
52104;SDS011;38103;42.776;23.112;2022-10-30T14:39:52;10.77;;;3.78;;
52104;SDS011;38103;42.776;23.112;2022-10-30T14:42:35;11.20;;;4.15;;
52104;SDS011;38103;42.776;23.112;2022-10-30T14:53:19;16.02;;;4.63;;
52104;SDS011;38103;42.776;23.112;2022-10-30T14:58:38;14.13;;;4.63;;
52104;SDS011;38103;42.776;23.112;2022-10-30T15:06:51;11.98;;;4.55;;
52104;SDS011;38103;42.776;23.112;2022-10-30T15:14:44;13.32;;;5.07;;
52104;SDS011;38103;42.776;23.112;2022-10-30T15:17:16;12.38;;;5.18;;
52104;SDS011;38103;42.776;23.112;2022-10-30T15:19:47;14.88;;;4.65;;
52104;SDS011;38103;42.776;23.112;2022-10-30T15:22:14;11.82;;;4.93;;
52104;SDS011;38103;42.776;23.112;2022-10-30T15:24:44;14.20;;;4.80;;
52104;SDS011;38103;42.776;23.112;2022-10-30T15:27:13;12.88;;;4.60;;
52104;SDS011;38103;42.776;23.112;2022-10-30T15:29:42;12.50;;;4.80;;
52104;SDS011;38103;42.776;23.112;2022-10-30T15:34:51;13.85;;;4.85;;
52104;SDS011;38103;42.776;23.112;2022-10-30T15:37:20;11.07;;;4.35;;
52104;SDS011;38103;42.776;23.112;2022-10-30T15:39:46;12.65;;;5.47;;
52104;SDS011;38103;42.776;23.112;2022-10-30T15:42:11;14.32;;;4.65;;
52104;SDS011;38103;42.776;23.112;2022-10-30T15:44:40;14.57;;;4.95;;
52104;SDS011;38103;42.776;23.112;2022-10-30T15:47:14;11.85;;;5.10;;
52104;SDS011;38103;42.776;23.112;2022-10-30T15:49:47;12.05;;;5.03;;
52104;SDS011;38103;42.776;23.112;2022-10-30T15:52:18;11.38;;;5.10;;
52104;SDS011;38103;42.776;23.112;2022-10-30T15:54:44;13.23;;;5.60;;
52104;SDS011;38103;42.776;23.112;2022-10-30T15:57:56;13.80;;;5.13;;
52104;SDS011;38103;42.776;23.112;2022-10-30T16:00:18;14.25;;;5.10;;
52104;SDS011;38103;42.776;23.112;2022-10-30T16:02:48;14.15;;;5.63;;
52104;SDS011;38103;42.776;23.112;2022-10-30T16:05:42;14.45;;;5.40;;
52104;SDS011;38103;42.776;23.112;2022-10-30T16:08:11;12.65;;;5.28;;
52104;SDS011;38103;42.776;23.112;2022-10-30T16:10:40;14.55;;;5.72;;
52104;SDS011;38103;42.776;23.112;2022-10-30T16:15:54;14.10;;;5.93;;
52104;SDS011;38103;42.776;23.112;2022-10-30T16:18:21;14.98;;;6.18;;
52104;SDS011;38103;42.776;23.112;2022-10-30T16:20:52;18.52;;;7.15;;
52104;SDS011;38103;42.776;23.112;2022-10-30T16:23:20;16.40;;;6.53;;
52104;SDS011;38103;42.776;23.112;2022-10-30T16:25:46;18.15;;;6.82;;
52104;SDS011;38103;42.776;23.112;2022-10-30T16:28:36;15.13;;;6.70;;
52104;SDS011;38103;42.776;23.112;2022-10-30T16:31:02;16.42;;;6.72;;
52104;SDS011;38103;42.776;23.112;2022-10-30T16:33:30;14.15;;;6.35;;
52104;SDS011;38103;42.776;23.112;2022-10-30T16:35:57;14.48;;;6.32;;
52104;SDS011;38103;42.776;23.112;2022-10-30T16:38:25;17.30;;;6.55;;
52104;SDS011;38103;42.776;23.112;2022-10-30T16:40:54;14.75;;;6.50;;
52104;SDS011;38103;42.776;23.112;2022-10-30T16:45:50;16.15;;;6.15;;
52104;SDS011;38103;42.776;23.112;2022-10-30T16:48:34;13.95;;;6.10;;
52104;SDS011;38103;42.776;23.112;2022-10-30T16:51:00;16.92;;;5.80;;
52104;SDS011;38103;42.776;23.112;2022-10-30T16:53:27;14.73;;;6.03;;
52104;SDS011;38103;42.776;23.112;2022-10-30T16:55:54;17.88;;;6.28;;
52104;SDS011;38103;42.776;23.112;2022-10-30T16:58:23;13.63;;;5.72;;
52104;SDS011;38103;42.776;23.112;2022-10-30T17:00:53;16.15;;;5.55;;
52104;SDS011;38103;42.776;23.112;2022-10-30T17:03:25;14.27;;;5.90;;
52104;SDS011;38103;42.776;23.112;2022-10-30T17:06:00;15.55;;;5.30;;
52104;SDS011;38103;42.776;23.112;2022-10-30T17:08:29;14.77;;;5.55;;
52104;SDS011;38103;42.776;23.112;2022-10-30T17:11:00;15.02;;;5.72;;
52104;SDS011;38103;42.776;23.112;2022-10-30T17:18:39;18.80;;;5.82;;
52104;SDS011;38103;42.776;23.112;2022-10-30T17:21:06;14.18;;;5.35;;
52104;SDS011;38103;42.776;23.112;2022-10-30T17:23:34;12.50;;;5.55;;